Time,TemperatureF,DewpointF,PressureIn,WindDirection,WindDirectionDegrees,WindSpeedMPH,WindSpeedGustMPH,Humidity,HourlyPrecipIn,Conditions,Clouds,dailyrainin,SoftwareType,DateUTC
2013-01-11 00:00:00,26.2,21.8,29.27,NE,45,1.0,1.0,83,0.00,CLR,,0.00,WeatherDisplay:10.37,2013-01-10 11:00:00,
2013-01-11 00:15:00,26.3,22.1,29.27,NE,49,5.0,5.0,84,0.00,CLR,,0.00,WeatherDisplay:10.37,2013-01-10 11:15:00,
2013-01-11 00:30:00,26.1,21.9,29.27,NE,43,5.0,5.0,84,0.00,CLR,,0.00,WeatherDisplay:10.37,2013-01-10 11:30:00,
2013-01-11 00:45:00,25.8,21.3,29.27,NNE,27,5.0,5.0,83,0.00,CLR,,0.00,WeatherDisplay:10.37,2013-01-10 11:45:00,
2013-01-11 01:00:00,25.9,20.8,29.27,NE,34,3.0,5.0,81,0.00,CLR,,0.00,WeatherDisplay:10.37,2013-01-10 12:00:00,
2013-01-11 01:15:00,26.2,20.9,29.26,NE,42,5.0,5.0,80,0.00,CLR,,0.00,WeatherDisplay:10.37,2013-01-10 12:15:00,
2013-01-11 01:30:00,26.3,20.4,29.26,NE,39,6.0,6.0,78,0.00,CLR,,0.00,WeatherDisplay:10.37,2013-01-10 12:30:00,
2013-01-11 01:45:00,26.2,20.3,29.26,NE,41,5.0,6.0,78,0.00,CLR,,0.00,WeatherDisplay:10.37,2013-01-10 12:45:00,
2013-01-11 02:00:00,26.6,19.7,29.26,NNE,23,2.0,5.0,75,0.00,CLR,,0.00,WeatherDisplay:10.37,2013-01-10 13:00:00,
2013-01-11 02:15:00,27.4,19.6,29.25,NE,51,3.0,3.0,72,0.00,CLR,,0.00,WeatherDisplay:10.37,2013-01-10 13:15:00,
2013-01-11 02:30:00,27.7,19.5,29.25,NE,47,1.0,3.0,71,0.00,CLR,,0.00,WeatherDisplay:10.37,2013-01-10 13:30:00,
2013-01-11 02:45:00,27.5,19.0,29.25,NE,47,1.0,1.0,70,0.00,CLR,,0.00,WeatherDisplay:10.37,2013-01-10 13:45:00,
2013-01-11 03:00:00,27.7,18.8,29.25,NE,36,3.0,3.0,69,0.00,CLR,,0.00,WeatherDisplay:10.37,2013-01-10 14:00:00,
2013-01-11 03:15:00,27.8,18.2,29.24,NE,46,2.0,3.0,67,0.00,CLR,,0.00,WeatherDisplay:10.37,2013-01-10 14:15:00,
2013-01-11 03:30:00,27.6,18.5,29.24,NE,40,1.0,2.0,68,0.00,CLR,,0.00,WeatherDisplay:10.37,2013-01-10 14:30:00,
2013-01-11 03:45:00,27.6,18.4,29.24,NE,41,3.0,3.0,68,0.00,CLR,,0.00,WeatherDisplay:10.37,2013-01-10 14:45:00,
2013-01-11 04:00:00,26.5,17.7,29.24,NE,36,5.0,5.0,69,0.00,CLR,,0.00,WeatherDisplay:10.37,2013-01-10 15:00:00,
2013-01-11 04:15:00,24.3,18.2,29.24,NNE,24,3.0,5.0,77,0.00,CLR,,0.00,WeatherDisplay:10.37,2013-01-10 15:15:00,
2013-01-11 04:30:00,25.8,18.9,29.23,NNE,30,2.0,3.0,75,0.00,CLR,,0.00,WeatherDisplay:10.37,2013-01-10 15:30:00,
2013-01-11 04:45:00,26.3,18.8,29.23,NNE,32,6.0,6.0,73,0.00,CLR,,0.00,WeatherDisplay:10.37,2013-01-10 15:45:00,
2013-01-11 05:00:00,26.5,19.0,29.23,NNE,27,5.0,6.0,73,0.00,CLR,,0.00,WeatherDisplay:10.37,2013-01-10 16:00:00,
2013-01-11 05:15:00,26.7,18.6,29.23,NE,34,5.0,5.0,71,0.00,CLR,,0.00,WeatherDisplay:10.37,2013-01-10 16:15:00,
2013-01-11 05:30:00,26.5,18.7,29.22,NE,34,5.0,5.0,72,0.00,CLR,,0.00,WeatherDisplay:10.37,2013-01-10 16:30:00,
2013-01-11 05:45:00,27.3,17.8,29.22,NE,38,2.0,5.0,67,0.00,CLR,,0.00,WeatherDisplay:10.37,2013-01-10 16:45:00,
2013-01-11 06:00:00,27.6,17.0,29.22,NE,38,0.0,2.0,64,0.00,CLR,,0.00,WeatherDisplay:10.37,2013-01-10 17:00:00,
2013-01-11 06:15:00,27.0,17.8,29.22,NE,43,1.0,1.0,68,0.00,CLR,,0.00,WeatherDisplay:10.37,2013-01-10 17:15:00,
2013-01-11 06:30:00,26.3,17.5,29.22,NE,46,2.0,2.0,69,0.00,CLR,,0.00,WeatherDisplay:10.37,2013-01-10 17:30:00,
2013-01-11 06:45:00,26.1,17.6,29.21,NE,36,5.0,5.0,70,0.00,CLR,,0.00,WeatherDisplay:10.37,2013-01-10 17:45:00,
2013-01-11 07:00:00,26.2,18.1,29.21,NE,40,5.0,5.0,71,0.00,CLR,,0.00,WeatherDisplay:10.37,2013-01-10 18:00:00,
2013-01-11 07:15:00,26.2,18.1,29.20,NNE,33,6.0,6.0,71,0.00,CLR,,0.00,WeatherDisplay:10.37,2013-01-10 18:15:00,
2013-01-11 07:30:00,26.0,18.2,29.21,NNE,29,6.0,6.0,72,0.00,CLR,,0.00,WeatherDisplay:10.37,2013-01-10 18:30:00,
2013-01-11 07:45:00,26.3,18.5,29.20,NE,37,6.0,6.0,72,0.00,CLR,,0.00,WeatherDisplay:10.37,2013-01-10 18:45:00,
2013-01-11 08:00:00,25.9,18.4,29.20,NE,40,6.0,6.0,73,0.00,CLR,,0.00,WeatherDisplay:10.37,2013-01-10 19:00:00,
2013-01-11 08:15:00,26.8,18.6,29.20,NE,44,5.0,6.0,71,0.00,CLR,,0.00,WeatherDisplay:10.37,2013-01-10 19:15:00,
2013-01-11 08:30:00,26.1,18.0,29.20,NE,40,6.0,6.0,71,0.00,CLR,,0.00,WeatherDisplay:10.37,2013-01-10 19:30:00,
2013-01-11 08:45:00,25.8,18.4,29.20,NE,37,6.0,6.0,73,0.00,CLR,,0.00,WeatherDisplay:10.37,2013-01-10 19:45:00,
2013-01-11 09:00:00,26.0,18.5,29.20,NE,38,6.0,6.0,73,0.00,CLR,,0.00,WeatherDisplay:10.37,2013-01-10 20:00:00,
2013-01-11 09:15:00,26.0,18.5,29.19,NE,36,6.0,6.0,73,0.00,CLR,,0.00,WeatherDisplay:10.37,2013-01-10 20:15:00,
2013-01-11 09:30:00,26.1,18.6,29.19,NE,37,5.0,6.0,73,0.00,CLR,,0.00,WeatherDisplay:10.37,2013-01-10 20:30:00,
2013-01-11 09:45:00,26.1,18.7,29.19,NE,35,6.0,6.0,73,0.00,CLR,,0.00,WeatherDisplay:10.37,2013-01-10 20:45:00,
2013-01-11 10:00:00,26.1,18.6,29.19,NE,35,3.0,6.0,73,0.00,CLR,,0.00,WeatherDisplay:10.37,2013-01-10 21:00:00,
2013-01-11 10:15:00,26.1,19.0,29.19,NNE,33,5.0,5.0,74,0.00,CLR,,0.00,WeatherDisplay:10.37,2013-01-10 21:15:00,
2013-01-11 10:30:00,26.3,18.8,29.19,NE,37,5.0,5.0,73,0.00,CLR,,0.00,WeatherDisplay:10.37,2013-01-10 21:30:00,
2013-01-11 10:45:00,27.0,19.5,29.18,NE,41,3.0,5.0,73,0.00,CLR,,0.00,WeatherDisplay:10.37,2013-01-10 21:45:00,
2013-01-11 11:00:00,26.8,19.3,29.18,NE,37,3.0,3.0,73,0.00,CLR,,0.00,WeatherDisplay:10.37,2013-01-10 22:00:00,
2013-01-11 11:15:00,27.2,19.7,29.18,NE,38,5.0,5.0,73,0.00,CLR,,0.00,WeatherDisplay:10.37,2013-01-10 22:15:00,
2013-01-11 11:30:00,28.8,20.2,29.18,NE,42,3.0,5.0,70,0.00,CLR,,0.00,WeatherDisplay:10.37,2013-01-10 22:30:00,
2013-01-11 11:45:00,29.8,19.8,29.18,NE,43,2.0,3.0,66,0.00,CLR,,0.00,WeatherDisplay:10.37,2013-01-10 22:45:00,
2013-01-11 12:00:00,29.2,19.6,29.17,NE,37,2.0,2.0,67,0.00,CLR,,0.00,WeatherDisplay:10.37,2013-01-10 23:00:00,
2013-01-11 12:15:00,28.2,19.4,29.17,NE,40,5.0,5.0,69,0.00,CLR,,0.00,WeatherDisplay:10.37,2013-01-10 23:15:00,
2013-01-11 12:30:00,28.6,19.4,29.17,NE,42,5.0,5.0,68,0.00,CLR,,0.00,WeatherDisplay:10.37,2013-01-10 23:30:00,
2013-01-11 12:45:00,28.9,19.0,29.17,NE,46,5.0,5.0,66,0.00,CLR,,0.00,WeatherDisplay:10.37,2013-01-10 23:45:00,
2013-01-11 13:00:00,29.2,18.9,29.16,NE,46,5.0,5.0,65,0.00,CLR,,0.00,WeatherDisplay:10.37,2013-01-11 00:00:00,
2013-01-11 13:15:00,29.5,18.8,29.16,NE,49,5.0,5.0,64,0.00,CLR,,0.00,WeatherDisplay:10.37,2013-01-11 00:15:00,
2013-01-11 13:30:00,29.7,18.6,29.16,ENE,57,5.0,5.0,63,0.00,CLR,,0.00,WeatherDisplay:10.37,2013-01-11 00:30:00,
2013-01-11 13:45:00,29.6,20.3,29.15,NE,43,5.0,5.0,68,0.00,CLR,,0.00,WeatherDisplay:10.37,2013-01-11 00:45:00,
2013-01-11 14:00:00,29.2,20.0,29.15,NE,43,5.0,5.0,68,0.00,CLR,,0.00,WeatherDisplay:10.37,2013-01-11 01:00:00,
2013-01-11 14:15:00,28.5,20.3,29.15,NE,53,5.0,5.0,71,0.00,CLR,,0.00,WeatherDisplay:10.37,2013-01-11 01:15:00,
2013-01-11 14:30:00,28.0,20.1,29.15,NE,51,5.0,5.0,72,0.00,CLR,,0.00,WeatherDisplay:10.37,2013-01-11 01:30:00,
2013-01-11 14:45:00,27.6,20.7,29.14,NE,47,6.0,6.0,75,0.00,CLR,,0.00,WeatherDisplay:10.37,2013-01-11 01:45:00,
2013-01-11 15:00:00,27.2,20.7,29.14,NE,44,7.0,7.0,76,0.00,CLR,,0.00,WeatherDisplay:10.37,2013-01-11 02:00:00,
2013-01-11 15:15:00,27.2,20.6,29.13,NE,43,6.0,7.0,76,0.00,CLR,,0.00,WeatherDisplay:10.37,2013-01-11 02:15:00,
2013-01-11 15:30:00,27.3,21.1,29.13,NE,42,6.0,6.0,77,0.00,CLR,,0.00,WeatherDisplay:10.37,2013-01-11 02:30:00,
2013-01-11 15:45:00,27.9,21.3,29.13,NE,41,7.0,7.0,76,0.00,CLR,,0.00,WeatherDisplay:10.37,2013-01-11 02:45:00,
2013-01-11 16:00:00,27.6,21.1,29.13,NE,45,7.0,7.0,76,0.00,CLR,,0.00,WeatherDisplay:10.37,2013-01-11 03:00:00,
2013-01-11 16:15:00,27.5,21.0,29.12,NE,40,7.0,7.0,76,0.00,CLR,,0.00,WeatherDisplay:10.37,2013-01-11 03:15:00,
2013-01-11 16:30:00,27.8,20.2,29.12,NE,38,8.0,8.0,73,0.00,CLR,,0.00,WeatherDisplay:10.37,2013-01-11 03:30:00,
2013-01-11 16:45:00,28.5,19.3,29.12,NE,45,7.0,8.0,68,0.00,CLR,,0.00,WeatherDisplay:10.37,2013-01-11 03:45:00,
2013-01-11 17:00:00,28.6,20.0,29.12,NE,53,7.0,7.0,70,0.00,CLR,,0.00,WeatherDisplay:10.37,2013-01-11 04:00:00,
2013-01-11 17:15:00,28.4,20.8,29.11,NE,44,7.0,7.0,73,0.00,CLR,,0.00,WeatherDisplay:10.37,2013-01-11 04:15:00,
2013-01-11 17:30:00,28.3,21.4,29.11,NE,46,7.0,7.0,75,0.00,CLR,,0.00,WeatherDisplay:10.37,2013-01-11 04:30:00,
2013-01-11 17:45:00,28.1,21.5,29.11,NE,45,6.0,7.0,76,0.00,CLR,,0.00,WeatherDisplay:10.37,2013-01-11 04:45:00,
2013-01-11 18:02:00,27.7,21.4,29.11,NE,51,7.0,7.0,77,0.00,CLR,,0.00,WeatherDisplay:10.37,2013-01-11 05:02:00,
2013-01-11 18:15:00,27.8,21.5,29.11,NE,44,7.0,7.0,77,0.00,CLR,,0.00,WeatherDisplay:10.37,2013-01-11 05:15:00,
2013-01-11 18:30:00,27.8,21.5,29.11,NE,42,8.0,8.0,77,0.00,CLR,,0.00,WeatherDisplay:10.37,2013-01-11 05:30:00,
2013-01-11 18:45:00,28.0,21.1,29.11,NE,43,8.0,8.0,75,0.00,CLR,,0.00,WeatherDisplay:10.37,2013-01-11 05:45:00,
2013-01-11 19:00:00,27.9,21.0,29.11,NE,44,8.0,8.0,75,0.00,CLR,,0.00,WeatherDisplay:10.37,2013-01-11 06:00:00,
2013-01-11 19:15:00,27.6,21.0,29.11,NE,46,7.0,8.0,76,0.00,CLR,,0.00,WeatherDisplay:10.37,2013-01-11 06:15:00,
2013-01-11 19:30:00,27.6,21.0,29.11,NE,44,7.0,7.0,76,0.00,CLR,,0.00,WeatherDisplay:10.37,2013-01-11 06:30:00,
2013-01-11 19:45:00,26.7,20.5,29.11,NE,49,7.0,7.0,77,0.00,CLR,,0.00,WeatherDisplay:10.37,2013-01-11 06:45:00,
2013-01-11 20:00:00,26.5,20.6,29.11,NE,49,7.0,7.0,78,0.00,CLR,,0.00,WeatherDisplay:10.37,2013-01-11 07:00:00,
2013-01-11 20:15:00,26.2,20.6,29.11,NE,44,7.0,7.0,79,0.00,CLR,,0.00,WeatherDisplay:10.37,2013-01-11 07:15:00,
2013-01-11 20:30:00,25.8,20.5,29.11,NE,46,7.0,7.0,80,0.00,CLR,,0.00,WeatherDisplay:10.37,2013-01-11 07:30:00,
2013-01-11 20:45:00,25.5,20.5,29.10,NE,38,7.0,7.0,81,0.00,CLR,,0.00,WeatherDisplay:10.37,2013-01-11 07:45:00,
2013-01-11 21:00:00,25.8,20.5,29.10,NE,44,7.0,7.0,80,0.00,CLR,,0.00,WeatherDisplay:10.37,2013-01-11 08:00:00,
2013-01-11 21:15:00,25.5,20.2,29.10,NE,40,7.0,7.0,80,0.00,CLR,,0.00,WeatherDisplay:10.37,2013-01-11 08:15:00,
2013-01-11 21:30:00,25.6,19.9,29.10,NE,40,7.0,7.0,79,0.00,CLR,,0.00,WeatherDisplay:10.37,2013-01-11 08:30:00,
2013-01-11 21:45:00,25.3,20.0,29.09,NE,37,7.0,7.0,80,0.00,CLR,,0.00,WeatherDisplay:10.37,2013-01-11 08:45:00,
2013-01-11 22:00:00,25.3,20.0,29.09,NE,42,7.0,7.0,80,0.00,CLR,,0.00,WeatherDisplay:10.37,2013-01-11 09:00:00,
2013-01-11 22:15:00,25.2,19.9,29.09,NE,41,6.0,7.0,80,0.00,CLR,,0.00,WeatherDisplay:10.37,2013-01-11 09:15:00,
2013-01-11 22:30:00,25.1,20.1,29.09,NE,43,6.0,6.0,81,0.00,CLR,,0.00,WeatherDisplay:10.37,2013-01-11 09:30:00,
2013-01-11 22:45:00,24.9,20.1,29.08,NE,56,6.0,6.0,82,0.00,CLR,,0.00,WeatherDisplay:10.37,2013-01-11 09:45:00,
2013-01-11 23:00:00,24.4,20.0,29.08,NE,43,7.0,7.0,83,0.00,CLR,,0.00,WeatherDisplay:10.37,2013-01-11 10:00:00,
2013-01-11 23:15:00,24.4,20.5,29.08,NE,43,7.0,7.0,85,0.00,CLR,,0.00,WeatherDisplay:10.37,2013-01-11 10:15:00,
2013-01-11 23:30:00,24.3,20.5,29.09,NE,49,7.0,7.0,85,0.00,CLR,,0.00,WeatherDisplay:10.37,2013-01-11 10:30:00,
2013-01-11 23:45:00,23.8,20.5,29.08,NE,41,8.0,8.0,87,0.00,CLR,,0.00,WeatherDisplay:10.37,2013-01-11 10:45:00,